Time;durP1;ratioP1;P1;durP2;ratioP2;P2;SDS_P1;SDS_P2;PMS_P1;PMS_P2;Temp;Humidity;BMP_temperature;BMP_pressure;BME280_temperature;BME280_humidity;BME280_pressure;Samples;Min_cycle;Max_cycle;Signal;HPM_P1;HPM_P2
2022/09/21 00:01:19;;;;;;;2.67;2.30;;;18.50;62.00;;;;;;5033466;28;20233;-69
2022/09/21 00:03:46;;;;;;;2.70;2.00;;;18.60;62.20;;;;;;5032217;28;20233;-69
2022/09/21 00:06:18;;;;;;;2.95;2.10;;;18.50;62.10;;;;;;5049185;28;20433;-69
2022/09/21 00:08:45;;;;;;;2.40;2.20;;;18.60;62.40;;;;;;5032032;28;20216;-69
2022/09/21 00:11:19;;;;;;;2.72;2.22;;;18.50;62.10;;;;;;5033643;28;20203;-69
2022/09/21 00:13:45;;;;;;;2.10;1.92;;;18.50;62.30;;;;;;5033473;28;20174;-69
2022/09/21 00:16:13;;;;;;;2.25;2.03;;;18.50;62.20;;;;;;5032708;28;20238;-69
2022/09/21 00:18:40;;;;;;;2.33;2.13;;;18.50;62.10;;;;;;5048553;28;20187;-69
2022/09/21 00:21:09;;;;;;;2.50;2.30;;;18.50;62.20;;;;;;5033511;28;20183;-70
2022/09/21 00:23:35;;;;;;;2.00;1.90;;;18.50;62.10;;;;;;5031996;28;20193;-69
2022/09/21 00:26:18;;;;;;;3.17;2.10;;;18.50;62.10;;;;;;5048661;28;20289;-69
2022/09/21 00:28:45;;;;;;;1.92;1.80;;;18.50;62.00;;;;;;5032795;28;20198;-69
2022/09/21 00:31:17;;;;;;;2.35;2.15;;;18.50;62.00;;;;;;5048733;28;20267;-70
2022/09/21 00:33:43;;;;;;;2.10;1.90;;;18.50;62.00;;;;;;5033259;28;20207;-69
2022/09/21 00:36:14;;;;;;;1.67;1.50;;;18.50;62.00;;;;;;5033151;28;20217;-69
2022/09/21 00:38:40;;;;;;;2.60;1.98;;;18.50;62.00;;;;;;5031634;28;20191;-69
2022/09/21 00:41:08;;;;;;;2.47;2.13;;;18.50;62.10;;;;;;5032851;28;20233;-69
2022/09/21 00:43:39;;;;;;;2.47;2.10;;;18.50;62.00;;;;;;5048581;28;20186;-69
2022/09/21 00:46:26;;;;;;;2.33;2.03;;;18.50;62.00;;;;;;5032448;28;20195;-69
2022/09/21 00:48:52;;;;;;;2.13;1.75;;;18.50;62.20;;;;;;5032969;28;20253;-69
2022/09/21 00:51:19;;;;;;;2.10;2.00;;;18.50;62.00;;;;;;5032142;28;20214;-69
2022/09/21 00:53:48;;;;;;;2.13;1.90;;;18.50;62.90;;;;;;5032045;28;20175;-69
2022/09/21 00:56:14;;;;;;;2.85;1.88;;;18.50;62.10;;;;;;5048480;28;20190;-69
2022/09/21 00:58:48;;;;;;;2.15;1.92;;;18.50;62.00;;;;;;5031839;28;20184;-69
2022/09/21 01:01:17;;;;;;;2.00;1.80;;;18.50;61.90;;;;;;5015409;28;20222;-69
2022/09/21 01:03:50;;;;;;;1.75;1.65;;;18.50;62.00;;;;;;5015564;28;20221;-69
2022/09/21 01:06:19;;;;;;;1.70;1.60;;;18.50;61.90;;;;;;5031993;28;20187;-69
2022/09/21 01:08:53;;;;;;;1.80;1.70;;;18.40;61.80;;;;;;5048603;28;20225;-69
2022/09/21 01:12:01;;;;;;;2.20;2.10;;;18.40;61.70;;;;;;5015065;28;20242;-69
2022/09/21 01:15:05;;;;;;;1.70;1.60;;;18.40;62.00;;;;;;5031898;28;20183;-69
2022/09/21 01:18:14;;;;;;;2.53;2.10;;;18.50;62.00;;;;;;5031894;28;20194;-69
2022/09/21 01:21:13;;;;;;;1.95;1.83;;;18.50;61.90;;;;;;5032027;28;20194;-69
2022/09/21 01:24:12;;;;;;;2.72;2.00;;;18.40;61.80;;;;;;5035551;28;20201;-69
2022/09/21 01:27:08;;;;;;;1.85;1.75;;;18.40;62.00;;;;;;5035213;28;20196;-69
2022/09/21 01:29:44;;;;;;;2.00;1.80;;;18.40;61.70;;;;;;5035016;28;20294;-69
2022/09/21 01:32:32;;;;;;;2.22;1.75;;;18.40;61.70;;;;;;5035153;28;20723;-69
2022/09/21 01:35:08;;;;;;;1.60;1.50;;;18.40;61.90;;;;;;5068415;22;20213;-71
2022/09/21 01:37:47;;;;;;;2.00;1.80;;;18.40;61.90;;;;;;5013568;28;20231;-69
2022/09/21 01:40:28;;;;;;;2.72;1.92;;;18.40;61.80;;;;;;5013748;28;20250;-69
2022/09/21 01:42:57;;;;;;;1.80;1.70;;;18.40;61.90;;;;;;4997136;28;20634;-69
2022/09/21 01:45:32;;;;;;;2.00;1.80;;;18.40;61.90;;;;;;5013884;28;20556;-68
2022/09/21 01:48:03;;;;;;;1.92;1.83;;;18.40;61.80;;;;;;5013499;28;20172;-68
2022/09/21 01:50:37;;;;;;;2.13;1.92;;;18.40;61.70;;;;;;5013412;28;20204;-69
2022/09/21 01:53:34;;;;;;;1.83;1.73;;;18.40;61.60;;;;;;5013519;28;20234;-68
2022/09/21 01:56:19;;;;;;;1.83;1.73;;;18.40;61.70;;;;;;4997438;28;20257;-68
2022/09/21 01:59:00;;;;;;;1.70;1.60;;;18.40;61.90;;;;;;5013130;28;20200;-68
2022/09/21 02:01:33;;;;;;;1.50;1.40;;;18.40;61.90;;;;;;5014765;28;20231;-69
2022/09/21 02:04:07;;;;;;;1.58;1.48;;;18.40;61.80;;;;;;5013174;28;20192;-69
2022/09/21 02:06:33;;;;;;;1.90;1.80;;;18.40;61.80;;;;;;4997165;28;20188;-69
2022/09/21 02:09:00;;;;;;;1.70;1.60;;;18.40;61.60;;;;;;4996795;28;20204;-69
2022/09/21 02:11:25;;;;;;;1.85;1.75;;;18.40;61.60;;;;;;5012862;28;20208;-69
2022/09/21 02:13:54;;;;;;;1.60;1.50;;;18.40;61.60;;;;;;5029619;28;20221;-69
2022/09/21 02:17:18;;;;;;;1.80;1.70;;;18.40;61.50;;;;;;5012934;28;20186;-69
2022/09/21 02:20:26;;;;;;;1.65;1.55;;;18.40;61.60;;;;;;5012900;28;20188;-69
2022/09/21 02:23:24;;;;;;;1.50;1.40;;;18.40;61.70;;;;;;5012892;28;20176;-69
2022/09/21 02:26:12;;;;;;;2.00;1.80;;;18.40;61.50;;;;;;5030226;28;20200;-70
2022/09/21 02:29:04;;;;;;;1.42;1.33;;;18.40;61.50;;;;;;5012817;28;20200;-70
2022/09/21 02:31:52;;;;;;;1.67;1.58;;;18.40;61.80;;;;;;5013845;28;20196;-70
2022/09/21 02:34:31;;;;;;;1.70;1.60;;;18.40;61.80;;;;;;5010637;28;20188;-69
2022/09/21 02:37:18;;;;;;;1.50;1.40;;;18.30;61.50;;;;;;4992961;28;20192;-70
2022/09/21 02:40:22;;;;;;;2.00;1.45;;;18.30;61.30;;;;;;4993156;28;20192;-69
2022/09/21 02:43:07;;;;;;;1.70;1.60;;;18.30;61.30;;;;;;5011017;28;20200;-69
2022/09/21 02:45:50;;;;;;;1.67;1.58;;;18.30;62.40;;;;;;5028942;28;20188;-69
2022/09/21 02:48:33;;;;;;;1.55;1.45;;;18.30;61.50;;;;;;5013094;28;20287;-69
2022/09/21 02:51:09;;;;;;;1.73;1.63;;;18.40;61.60;;;;;;5012278;28;20207;-69
2022/09/21 02:53:39;;;;;;;1.40;1.30;;;18.30;61.30;;;;;;5028959;28;20218;-70
2022/09/21 02:56:08;;;;;;;1.70;1.60;;;18.30;61.20;;;;;;5012302;28;20246;-69
2022/09/21 02:58:38;;;;;;;1.73;1.63;;;18.30;61.20;;;;;;5028344;28;20184;-69
2022/09/21 03:01:09;;;;;;;1.92;1.77;;;18.30;61.20;;;;;;5028380;28;20279;-70
2022/09/21 03:03:35;;;;;;;2.70;2.08;;;18.30;61.20;;;;;;5011922;28;20194;-69
2022/09/21 03:06:01;;;;;;;2.10;1.90;;;18.30;61.40;;;;;;5028529;28;20275;-69
2022/09/21 03:08:27;;;;;;;2.25;2.05;;;18.30;61.40;;;;;;5028348;28;20263;-70
2022/09/21 03:10:53;;;;;;;2.00;1.80;;;18.30;61.50;;;;;;5028352;28;20231;-69
2022/09/21 03:13:19;;;;;;;2.88;2.30;;;18.30;61.30;;;;;;5011879;28;20215;-69
2022/09/21 03:15:46;;;;;;;2.22;2.03;;;18.30;61.40;;;;;;5028340;28;20210;-69
2022/09/21 03:18:12;;;;;;;2.30;2.10;;;18.30;61.40;;;;;;5012937;28;20184;-69
2022/09/21 03:20:46;;;;;;;2.15;1.95;;;18.30;61.50;;;;;;5027958;28;20232;-69
2022/09/21 03:23:13;;;;;;;2.58;2.00;;;18.30;61.40;;;;;;5011772;28;20187;-69
2022/09/21 03:25:42;;;;;;;1.90;1.70;;;18.30;61.30;;;;;;5012980;28;20274;-69
2022/09/21 03:28:09;;;;;;;2.10;1.90;;;18.30;61.30;;;;;;5010912;28;20183;-69
2022/09/21 03:30:36;;;;;;;2.33;1.98;;;18.30;61.20;;;;;;5026126;28;20240;-69
2022/09/21 03:33:03;;;;;;;1.70;1.60;;;18.30;61.20;;;;;;4994836;28;20226;-69
2022/09/21 03:35:29;;;;;;;2.03;1.88;;;18.30;61.10;;;;;;5011305;28;20207;-69
2022/09/21 03:37:56;;;;;;;2.45;2.25;;;18.20;61.00;;;;;;4994677;28;20258;-69
2022/09/21 03:40:23;;;;;;;2.30;2.03;;;18.30;61.00;;;;;;4994832;28;20208;-69
2022/09/21 03:42:49;;;;;;;2.10;1.90;;;18.30;61.10;;;;;;5011205;28;20188;-69
2022/09/21 03:45:15;;;;;;;1.80;1.70;;;18.30;61.00;;;;;;4994279;28;20183;-69
2022/09/21 03:47:41;;;;;;;2.17;1.98;;;18.30;60.90;;;;;;4994508;28;20183;-69
2022/09/21 03:50:08;;;;;;;2.22;1.80;;;18.30;61.10;;;;;;5011005;28;20220;-69
2022/09/21 03:52:36;;;;;;;1.70;1.60;;;18.20;61.00;;;;;;5011287;28;20184;-69
2022/09/21 03:55:06;;;;;;;2.20;1.92;;;18.20;61.10;;;;;;4994660;28;20211;-69
2022/09/21 03:57:34;;;;;;;2.13;1.92;;;18.20;61.10;;;;;;5010564;28;20190;-69
2022/09/21 04:00:02;;;;;;;1.75;1.65;;;18.30;61.30;;;;;;4994895;28;20299;-69
2022/09/21 04:02:30;;;;;;;2.17;1.98;;;18.20;61.30;;;;;;5010940;28;20192;-70
2022/09/21 04:04:56;;;;;;;2.50;1.58;;;18.20;61.10;;;;;;4994492;28;20200;-70
2022/09/21 04:07:22;;;;;;;2.10;1.90;;;18.20;61.20;;;;;;5009872;28;20184;-70
2022/09/21 04:09:48;;;;;;;1.90;1.70;;;18.20;61.10;;;;;;4996566;28;20212;-70
2022/09/21 04:12:14;;;;;;;2.22;2.03;;;18.20;61.20;;;;;;5011819;28;20183;-70
2022/09/21 04:14:39;;;;;;;2.30;2.10;;;18.20;61.00;;;;;;5010915;28;20180;-70
2022/09/21 04:17:05;;;;;;;2.00;1.80;;;18.20;61.10;;;;;;5027372;28;20258;-70
2022/09/21 04:19:31;;;;;;;2.00;1.80;;;18.20;61.00;;;;;;5010456;28;20560;-69
2022/09/21 04:21:57;;;;;;;1.92;1.83;;;18.20;60.90;;;;;;4994547;28;20214;-70
2022/09/21 04:24:23;;;;;;;1.83;1.73;;;18.20;61.00;;;;;;5026939;28;20207;-70
2022/09/21 04:26:49;;;;;;;2.10;1.90;;;18.20;60.90;;;;;;4994562;28;20544;-70
2022/09/21 04:29:15;;;;;;;1.63;1.42;;;18.20;60.80;;;;;;4994127;28;20277;-70
2022/09/21 04:31:41;;;;;;;2.03;1.83;;;18.20;60.80;;;;;;4994117;28;20212;-72
2022/09/21 04:34:11;;;;;;;2.03;1.80;;;18.20;60.70;;;;;;5010562;28;20207;-72
2022/09/21 04:36:37;;;;;;;2.10;2.00;;;18.20;60.70;;;;;;5011855;28;20184;-71
2022/09/21 04:39:04;;;;;;;1.70;1.60;;;18.20;60.70;;;;;;5010195;28;20654;-70
2022/09/21 04:41:31;;;;;;;1.80;1.70;;;18.20;60.80;;;;;;5010718;28;20212;-70
2022/09/21 04:43:57;;;;;;;1.70;1.60;;;18.20;60.90;;;;;;5010930;28;20199;-72
2022/09/21 04:46:22;;;;;;;1.70;1.60;;;18.20;61.00;;;;;;4994401;28;20196;-72
2022/09/21 04:48:48;;;;;;;2.20;2.00;;;18.20;61.10;;;;;;5010231;28;20247;-72
2022/09/21 04:51:16;;;;;;;2.05;1.90;;;18.20;61.00;;;;;;5010449;28;20204;-72
2022/09/21 04:53:43;;;;;;;1.73;1.63;;;18.20;61.00;;;;;;4994221;28;20204;-72
2022/09/21 04:56:12;;;;;;;2.17;1.90;;;18.20;61.00;;;;;;5026819;28;20184;-72
2022/09/21 04:58:38;;;;;;;2.00;1.80;;;18.20;61.00;;;;;;5013814;28;20181;-72
2022/09/21 05:01:05;;;;;;;1.75;1.65;;;18.10;60.80;;;;;;4997967;28;20246;-72
2022/09/21 05:03:31;;;;;;;1.90;1.75;;;18.20;61.00;;;;;;5014235;28;20196;-72
2022/09/21 05:05:57;;;;;;;1.73;1.63;;;18.20;60.90;;;;;;4997599;28;20224;-72
2022/09/21 05:11:14;;;;;;;2.40;2.20;;;18.20;60.80;;;;;;5014953;28;20204;-72
2022/09/21 05:13:41;;;;;;;2.28;2.05;;;18.20;60.70;;;;;;5015001;28;20192;-72
2022/09/21 05:16:07;;;;;;;2.65;2.45;;;18.20;61.70;;;;;;5014928;28;20187;-72
2022/09/21 05:18:34;;;;;;;2.70;2.50;;;18.20;60.60;;;;;;5029933;28;20192;-72
2022/09/21 05:21:02;;;;;;;2.53;2.30;;;18.10;60.50;;;;;;5013775;28;20255;-72
2022/09/21 05:23:30;;;;;;;2.30;2.10;;;18.20;60.50;;;;;;5013529;28;20189;-72
2022/09/21 05:25:58;;;;;;;2.40;2.20;;;18.10;60.50;;;;;;5014936;28;20195;-72
2022/09/21 05:28:25;;;;;;;2.20;2.00;;;18.10;60.80;;;;;;5013158;28;20269;-72
2022/09/21 05:31:15;;;;;;;2.72;2.00;;;18.10;60.80;;;;;;5014368;28;20210;-72
2022/09/21 05:34:01;;;;;;;2.22;2.03;;;18.10;60.80;;;;;;5013531;28;20271;-72
2022/09/21 05:36:58;;;;;;;2.03;1.92;;;18.10;60.70;;;;;;5013285;28;20204;-72
2022/09/21 05:39:24;;;;;;;2.88;2.05;;;18.10;59.80;;;;;;5012475;28;20200;-72
2022/09/21 05:41:51;;;;;;;2.80;2.10;;;18.10;60.50;;;;;;5014514;28;20235;-72
2022/09/21 05:44:17;;;;;;;2.00;1.90;;;18.10;60.30;;;;;;5013410;28;20192;-73
2022/09/21 05:47:03;;;;;;;2.00;1.90;;;18.10;60.20;;;;;;4997182;28;20184;-73
2022/09/21 05:50:04;;;;;;;1.92;1.80;;;18.10;60.30;;;;;;5012913;28;20290;-73
2022/09/21 05:52:59;;;;;;;2.22;2.03;;;18.10;60.70;;;;;;5013147;28;20184;-73
2022/09/21 05:55:39;;;;;;;2.15;1.98;;;18.10;60.50;;;;;;5012908;28;20202;-72
2022/09/21 05:58:19;;;;;;;2.03;1.83;;;18.10;60.30;;;;;;4996047;28;20191;-73
2022/09/21 06:01:20;;;;;;;2.50;2.30;;;18.10;60.30;;;;;;5013018;28;20200;-73
2022/09/21 06:03:48;;;;;;;2.30;2.10;;;18.10;60.30;;;;;;5013053;28;20220;-72
2022/09/21 06:06:16;;;;;;;2.53;2.33;;;18.10;60.60;;;;;;5012760;28;20562;-73
2022/09/21 06:08:42;;;;;;;2.25;2.00;;;18.10;60.60;;;;;;5028361;28;20216;-73
2022/09/21 06:11:08;;;;;;;2.40;2.20;;;18.10;60.50;;;;;;5012928;28;20211;-73
2022/09/21 06:13:34;;;;;;;2.40;2.20;;;18.10;60.60;;;;;;5012802;28;20172;-73
2022/09/21 06:16:04;;;;;;;2.40;2.20;;;18.10;60.50;;;;;;5012979;28;20265;-73
2022/09/21 06:18:30;;;;;;;1.98;1.85;;;18.10;60.40;;;;;;5013563;28;20196;-73
2022/09/21 06:20:55;;;;;;;2.40;2.20;;;18.10;60.40;;;;;;5012656;28;20223;-73
2022/09/21 06:23:21;;;;;;;2.42;2.00;;;18.10;60.50;;;;;;5007105;28;20659;-73
2022/09/21 06:25:52;;;;;;;2.13;1.98;;;18.10;60.30;;;;;;4992995;28;20224;-73
2022/09/21 06:28:19;;;;;;;2.15;1.95;;;18.10;60.30;;;;;;4976227;28;20300;-72
2022/09/21 06:30:51;;;;;;;2.13;2.00;;;18.10;60.30;;;;;;4992852;28;20208;-73
2022/09/21 06:33:20;;;;;;;2.45;2.05;;;18.10;60.30;;;;;;4992871;28;20192;-73
2022/09/21 06:35:59;;;;;;;2.22;2.03;;;18.10;60.40;;;;;;4999878;28;20207;-73
2022/09/21 06:38:27;;;;;;;2.00;1.83;;;18.10;60.50;;;;;;4995701;28;20646;-73
2022/09/21 06:40:54;;;;;;;2.08;1.80;;;18.10;60.50;;;;;;5012232;28;20215;-72
2022/09/21 06:43:20;;;;;;;2.70;2.25;;;18.10;60.50;;;;;;4991275;28;20212;-73
2022/09/21 06:45:55;;;;;;;2.15;1.95;;;18.10;60.50;;;;;;4976288;28;20191;-73
2022/09/21 06:48:21;;;;;;;2.40;2.10;;;18.20;60.50;;;;;;4991994;28;20212;-73
2022/09/21 06:50:48;;;;;;;2.35;2.17;;;18.20;60.50;;;;;;4992473;28;20204;-73
2022/09/21 06:53:15;;;;;;;3.83;2.35;;;18.20;60.50;;;;;;4992429;28;20189;-73
2022/09/21 06:55:41;;;;;;;2.30;2.10;;;18.20;60.50;;;;;;4992567;28;20189;-72
2022/09/21 06:58:06;;;;;;;2.20;2.00;;;18.20;60.50;;;;;;4993238;28;20181;-73
2022/09/21 07:00:34;;;;;;;1.95;1.80;;;18.20;60.50;;;;;;4976276;28;20212;-73
2022/09/21 07:02:59;;;;;;;2.42;2.03;;;18.20;60.40;;;;;;4992435;28;20196;-73
2022/09/21 07:05:25;;;;;;;5.30;2.33;;;18.20;60.40;;;;;;4976279;28;20181;-72
2022/09/21 07:07:57;;;;;;;2.20;1.88;;;18.20;60.40;;;;;;4993117;28;20725;-72
2022/09/21 07:10:24;;;;;;;2.13;1.92;;;18.20;60.40;;;;;;4991957;28;20299;-72
2022/09/21 07:12:51;;;;;;;2.28;2.00;;;18.20;60.40;;;;;;4975771;28;20177;-73
2022/09/21 07:15:20;;;;;;;2.42;2.13;;;18.20;60.40;;;;;;4992178;28;20573;-73
2022/09/21 07:17:46;;;;;;;2.10;1.90;;;18.20;60.40;;;;;;4991870;28;20216;-73
2022/09/21 07:20:12;;;;;;;2.75;2.00;;;18.30;60.50;;;;;;4991378;28;20216;-73
2022/09/21 07:22:38;;;;;;;2.00;1.90;;;18.30;60.50;;;;;;4992150;28;20200;-73
2022/09/21 07:25:05;;;;;;;1.95;1.80;;;18.30;60.50;;;;;;4976207;28;20196;-73
2022/09/21 07:27:32;;;;;;;2.13;1.92;;;18.30;60.40;;;;;;4976723;28;20199;-73
2022/09/21 07:29:58;;;;;;;2.30;2.10;;;18.30;60.40;;;;;;4991460;28;20251;-73
2022/09/21 07:32:24;;;;;;;2.45;2.25;;;18.30;60.40;;;;;;4991856;28;20614;-73
2022/09/21 07:34:55;;;;;;;2.00;1.80;;;18.40;60.40;;;;;;4975669;28;20188;-73
2022/09/21 07:37:23;;;;;;;2.20;1.98;;;18.40;60.30;;;;;;4975756;28;20177;-73
2022/09/21 07:39:51;;;;;;;2.50;1.80;;;18.40;60.20;;;;;;4975047;28;20224;-73
2022/09/21 07:42:19;;;;;;;2.20;2.00;;;18.50;60.20;;;;;;4992617;28;20193;-73
2022/09/21 07:44:48;;;;;;;2.00;1.77;;;18.50;60.20;;;;;;4975361;28;20192;-73
2022/09/21 07:47:15;;;;;;;1.73;1.63;;;18.50;60.10;;;;;;4975400;28;20185;-73
2022/09/21 07:49:41;;;;;;;2.15;1.88;;;18.50;60.00;;;;;;4991040;28;20208;-73
2022/09/21 07:52:08;;;;;;;1.65;1.55;;;18.60;60.10;;;;;;4991356;28;20556;-73
2022/09/21 07:54:35;;;;;;;2.13;1.70;;;18.60;60.00;;;;;;4975172;28;20191;-73
2022/09/21 07:59:46;;;;;;;2.00;1.80;;;18.70;60.10;;;;;;4990984;28;20197;-73
2022/09/21 08:02:12;;;;;;;1.90;1.80;;;18.70;60.10;;;;;;4975435;28;20185;-73
2022/09/21 08:04:38;;;;;;;2.28;2.08;;;18.70;60.10;;;;;;4975357;28;20242;-73
2022/09/21 08:07:04;;;;;;;2.38;2.00;;;18.70;60.10;;;;;;4975135;28;20189;-74
2022/09/21 08:09:29;;;;;;;2.22;1.95;;;18.70;60.10;;;;;;4991971;28;20212;-74
2022/09/21 08:11:55;;;;;;;2.13;1.83;;;18.70;60.10;;;;;;4974901;28;20212;-73
2022/09/21 08:14:22;;;;;;;1.83;1.73;;;18.70;60.10;;;;;;4990941;28;20189;-73
2022/09/21 08:16:48;;;;;;;1.75;1.65;;;18.70;60.10;;;;;;4975254;28;20868;-73
2022/09/21 08:19:16;;;;;;;1.70;1.45;;;18.70;60.10;;;;;;4991088;28;20185;-73
2022/09/21 08:21:42;;;;;;;2.03;1.70;;;18.70;60.10;;;;;;4974783;28;20212;-73
2022/09/21 08:24:09;;;;;;;2.67;2.00;;;18.70;60.00;;;;;;4974610;28;20686;-73
2022/09/21 08:26:35;;;;;;;1.92;1.83;;;18.70;60.10;;;;;;4974133;28;20199;-73
2022/09/21 08:29:01;;;;;;;3.17;1.88;;;18.80;60.20;;;;;;4996171;28;20213;-73
2022/09/21 08:31:27;;;;;;;1.80;1.60;;;18.80;60.10;;;;;;4999282;28;20254;-73
2022/09/21 08:33:56;;;;;;;1.92;1.70;;;18.80;60.20;;;;;;4999038;28;20196;-73
2022/09/21 08:36:22;;;;;;;1.60;1.50;;;18.80;60.20;;;;;;4981728;28;20197;-73
2022/09/21 08:38:49;;;;;;;2.20;1.85;;;18.70;60.10;;;;;;4997617;28;20184;-72
2022/09/21 08:41:23;;;;;;;1.60;1.40;;;18.70;60.20;;;;;;4997619;28;20217;-73
2022/09/21 08:43:56;;;;;;;2.08;1.70;;;18.70;60.20;;;;;;4981313;28;20246;-73
2022/09/21 08:46:27;;;;;;;1.58;1.48;;;18.70;60.30;;;;;;4982532;28;20185;-73
2022/09/21 08:49:05;;;;;;;1.73;1.60;;;18.70;60.40;;;;;;4980836;28;20228;-73
2022/09/21 08:51:40;;;;;;;1.83;1.50;;;18.70;60.30;;;;;;5013749;28;20231;-73
2022/09/21 08:54:19;;;;;;;1.92;1.73;;;18.70;60.30;;;;;;4998462;28;20179;-73
2022/09/21 08:56:46;;;;;;;1.50;1.40;;;18.70;60.30;;;;;;4997565;28;20188;-73
2022/09/21 08:59:15;;;;;;;1.83;1.50;;;18.70;60.30;;;;;;4980635;28;20654;-73
2022/09/21 09:02:03;;;;;;;1.70;1.60;;;18.70;60.30;;;;;;4997670;28;20240;-73
2022/09/21 09:05:17;;;;;;;1.55;1.30;;;18.80;60.40;;;;;;5013366;28;20190;-73
2022/09/21 09:08:37;;;;;;;1.63;1.52;;;18.70;60.30;;;;;;5013296;28;20188;-73
2022/09/21 09:11:15;;;;;;;2.20;1.45;;;18.70;60.50;;;;;;4980953;28;20299;-73
2022/09/21 09:13:54;;;;;;;1.80;1.55;;;18.80;60.50;;;;;;5013803;28;20181;-73
2022/09/21 09:16:42;;;;;;;2.00;1.55;;;18.70;60.30;;;;;;4981125;28;20184;-73
2022/09/21 09:19:45;;;;;;;2.78;1.70;;;18.70;60.50;;;;;;4996789;28;20223;-73
2022/09/21 09:22:22;;;;;;;1.98;1.48;;;18.70;60.40;;;;;;4980749;28;20188;-73
2022/09/21 09:24:57;;;;;;;1.80;1.48;;;18.70;60.30;;;;;;4998189;28;20177;-72
2022/09/21 09:27:31;;;;;;;1.88;1.67;;;18.80;60.40;;;;;;5013550;28;20184;-73
2022/09/21 09:30:18;;;;;;;1.88;1.60;;;18.70;60.20;;;;;;5013431;28;20220;-73
2022/09/21 09:33:18;;;;;;;1.58;1.45;;;18.70;60.30;;;;;;5000565;28;20648;-73
2022/09/21 09:35:48;;;;;;;1.73;1.45;;;18.70;60.70;;;;;;5016214;28;20199;-73
2022/09/21 09:38:37;;;;;;;1.30;1.20;;;18.80;60.80;;;;;;5000001;28;20275;-73
2022/09/21 09:41:42;;;;;;;1.85;1.40;;;18.70;60.60;;;;;;5032988;28;20218;-73
2022/09/21 09:44:55;;;;;;;1.20;1.10;;;18.70;60.30;;;;;;4996538;28;20184;-73
2022/09/21 09:47:56;;;;;;;1.42;1.33;;;18.70;60.60;;;;;;5013543;28;20218;-73
2022/09/21 09:50:37;;;;;;;1.65;1.50;;;18.80;60.40;;;;;;5029036;28;20250;-73
2022/09/21 09:53:12;;;;;;;1.60;1.50;;;18.80;60.40;;;;;;4996934;28;20271;-73
2022/09/21 09:55:42;;;;;;;1.20;1.10;;;18.70;60.30;;;;;;4997206;28;20184;-73
2022/09/21 09:58:33;;;;;;;1.35;1.25;;;18.80;60.20;;;;;;5029677;28;20243;-72
2022/09/21 10:00:59;;;;;;;1.67;1.40;;;18.80;60.40;;;;;;5013079;28;20339;-73
2022/09/21 10:03:27;;;;;;;1.45;1.30;;;18.80;60.70;;;;;;4996638;28;20203;-73
2022/09/21 10:05:54;;;;;;;2.35;1.50;;;18.70;60.30;;;;;;5029754;28;20192;-73
2022/09/21 10:08:46;;;;;;;1.55;1.40;;;18.70;60.20;;;;;;5013665;28;20188;-73
2022/09/21 10:11:14;;;;;;;1.13;1.08;;;18.80;60.50;;;;;;5029164;28;20261;-73
2022/09/21 10:13:48;;;;;;;1.08;1.00;;;18.70;60.30;;;;;;5012747;28;20192;-73
2022/09/21 10:16:21;;;;;;;1.30;1.20;;;18.70;60.30;;;;;;4996281;28;20199;-73
2022/09/21 10:19:00;;;;;;;1.30;1.20;;;18.70;60.30;;;;;;4996143;28;20234;-73
2022/09/21 10:21:39;;;;;;;1.20;1.10;;;18.80;60.50;;;;;;5012691;28;20230;-73
2022/09/21 10:24:13;;;;;;;2.38;1.30;;;18.80;60.20;;;;;;4996273;28;20244;-73
2022/09/21 10:26:54;;;;;;;1.55;1.40;;;18.80;60.80;;;;;;5013702;28;20243;-73
2022/09/21 10:29:24;;;;;;;1.30;1.20;;;18.80;60.90;;;;;;4995969;28;20219;-73
2022/09/21 10:32:15;;;;;;;1.63;1.13;;;18.80;60.60;;;;;;4996354;28;20265;-74
2022/09/21 10:35:09;;;;;;;1.40;1.30;;;18.80;60.40;;;;;;5012523;28;20250;-73
2022/09/21 10:37:47;;;;;;;1.23;1.13;;;18.80;60.00;;;;;;4995817;28;20184;-73
2022/09/21 10:40:18;;;;;;;1.38;1.27;;;18.80;60.10;;;;;;5011936;28;20281;-73
2022/09/21 10:42:48;;;;;;;1.60;1.00;;;18.80;60.20;;;;;;4992489;28;20192;-73
2022/09/21 10:45:18;;;;;;;2.35;1.55;;;18.80;60.10;;;;;;5012266;28;20188;-73
2022/09/21 10:47:53;;;;;;;1.20;1.10;;;18.80;60.50;;;;;;5028879;28;20188;-73
2022/09/21 10:50:36;;;;;;;1.52;1.33;;;18.80;60.60;;;;;;4995449;28;20314;-73
2022/09/21 10:53:07;;;;;;;1.15;1.00;;;18.80;60.40;;;;;;4995791;28;20180;-73
2022/09/21 10:55:39;;;;;;;1.02;1.00;;;18.80;60.20;;;;;;4994594;28;20280;-73
2022/09/21 10:58:11;;;;;;;1.38;1.20;;;18.80;60.10;;;;;;5028037;28;20215;-73
2022/09/21 11:01:08;;;;;;;1.35;0.90;;;18.80;61.00;;;;;;5011888;28;20278;-73
2022/09/21 11:03:49;;;;;;;1.27;1.15;;;18.80;60.50;;;;;;5012104;28;20188;-73
2022/09/21 11:06:33;;;;;;;1.77;1.40;;;18.80;60.40;;;;;;5011597;28;20190;-73
2022/09/21 11:09:13;;;;;;;1.15;0.98;;;18.80;60.90;;;;;;5028079;28;20214;-73
2022/09/21 11:11:56;;;;;;;1.20;1.10;;;18.80;60.40;;;;;;5013017;28;20298;-73
2022/09/21 11:14:44;;;;;;;1.20;1.10;;;18.80;60.60;;;;;;5012818;28;20184;-73
2022/09/21 11:17:39;;;;;;;1.23;1.00;;;18.80;60.50;;;;;;5011823;28;20672;-73
2022/09/21 11:20:38;;;;;;;1.42;1.10;;;18.80;60.20;;;;;;5011076;28;20210;-73
2022/09/21 11:23:14;;;;;;;1.10;1.00;;;18.80;60.40;;;;;;5003107;28;20188;-73
2022/09/21 11:25:45;;;;;;;1.48;1.35;;;18.80;60.80;;;;;;4992139;28;20223;-73
2022/09/21 11:28:42;;;;;;;1.42;1.30;;;18.80;60.60;;;;;;4991280;28;20299;-73
2022/09/21 11:31:54;;;;;;;1.27;1.17;;;18.80;60.30;;;;;;4975525;28;20224;-73
2022/09/21 11:35:15;;;;;;;1.23;1.13;;;18.80;60.20;;;;;;4991524;28;20197;-73
2022/09/21 11:38:04;;;;;;;1.23;1.13;;;18.80;60.30;;;;;;4992936;28;20169;-72
2022/09/21 11:41:08;;;;;;;1.10;1.00;;;18.80;60.10;;;;;;4991512;28;20232;-72
2022/09/21 11:43:54;;;;;;;1.10;1.00;;;18.80;60.00;;;;;;4991720;28;20192;-73
2022/09/21 11:46:28;;;;;;;1.33;1.20;;;18.80;60.20;;;;;;4991771;28;20215;-73
2022/09/21 11:49:44;;;;;;;1.60;1.00;;;18.80;60.40;;;;;;4991128;28;20216;-73
2022/09/21 11:52:25;;;;;;;1.38;1.27;;;18.80;60.30;;;;;;4975126;28;20184;-73
2022/09/21 11:55:22;;;;;;;1.67;1.20;;;18.80;60.10;;;;;;4991382;28;20181;-73
2022/09/21 11:58:26;;;;;;;1.10;1.00;;;18.80;60.00;;;;;;4991368;28;20195;-72
2022/09/21 12:01:17;;;;;;;1.00;1.00;;;18.80;60.30;;;;;;4991414;28;20562;-73
2022/09/21 12:04:31;;;;;;;1.17;1.05;;;18.80;60.20;;;;;;4991342;28;20189;-73
2022/09/21 12:07:33;;;;;;;1.23;1.13;;;18.80;60.00;;;;;;4991824;28;20569;-73
2022/09/21 12:10:13;;;;;;;1.10;1.00;;;18.80;60.10;;;;;;4990778;28;20319;-73
2022/09/21 12:13:05;;;;;;;1.30;1.20;;;18.80;60.10;;;;;;4991070;28;20252;-73
2022/09/21 12:16:04;;;;;;;1.40;1.30;;;18.80;59.80;;;;;;4975074;28;20280;-74
2022/09/21 12:19:28;;;;;;;1.00;0.90;;;18.80;59.80;;;;;;4990847;28;20189;-73
2022/09/21 12:22:29;;;;;;;1.30;1.20;;;18.80;60.20;;;;;;4969490;28;20216;-73
2022/09/21 12:25:12;;;;;;;1.10;0.95;;;18.90;59.80;;;;;;4991144;28;20219;-74
2022/09/21 12:27:45;;;;;;;1.00;1.00;;;18.80;59.70;;;;;;4974737;28;20189;-72
2022/09/21 12:30:19;;;;;;;1.10;1.00;;;18.80;59.90;;;;;;4990678;28;20311;-73
2022/09/21 12:32:52;;;;;;;0.90;0.80;;;18.80;60.00;;;;;;4991195;28;20230;-73
2022/09/21 12:35:43;;;;;;;1.33;1.10;;;18.80;59.90;;;;;;4990723;28;20569;-73
2022/09/21 12:38:24;;;;;;;0.90;0.90;;;18.80;59.90;;;;;;4974441;28;20253;-73
2022/09/21 12:40:58;;;;;;;1.30;1.15;;;18.90;59.70;;;;;;4990671;28;20204;-73
2022/09/21 12:44:13;;;;;;;2.22;1.08;;;18.80;59.70;;;;;;4994119;28;20176;-73
2022/09/21 12:47:08;;;;;;;0.90;0.90;;;18.80;59.70;;;;;;4994679;28;20177;-73
2022/09/21 12:49:43;;;;;;;0.90;0.90;;;18.90;60.30;;;;;;5005074;28;20229;-73
2022/09/21 12:52:24;;;;;;;1.20;1.10;;;18.90;60.20;;;;;;5027258;28;20179;-73
2022/09/21 12:55:08;;;;;;;1.95;0.98;;;18.90;59.70;;;;;;4994388;28;20222;-73
2022/09/21 12:57:54;;;;;;;1.10;1.00;;;18.80;59.60;;;;;;4994116;28;20176;-73
2022/09/21 13:00:23;;;;;;;1.33;1.10;;;18.90;59.70;;;;;;5009733;28;20203;-73
2022/09/21 13:03:11;;;;;;;1.25;1.10;;;18.80;59.80;;;;;;5011438;28;20207;-73
2022/09/21 13:06:24;;;;;;;0.75;0.75;;;18.80;59.70;;;;;;5011583;28;20180;-73
2022/09/21 13:08:51;;;;;;;0.90;0.88;;;18.80;60.10;;;;;;4993606;28;20215;-73
2022/09/21 13:11:21;;;;;;;1.13;1.00;;;18.80;59.70;;;;;;4993913;28;20222;-73
2022/09/21 13:13:58;;;;;;;1.25;1.00;;;18.90;59.70;;;;;;5026466;28;20189;-73
2022/09/21 13:16:38;;;;;;;1.10;1.00;;;18.90;59.70;;;;;;4993856;28;20186;-73
2022/09/21 13:19:18;;;;;;;0.88;0.88;;;18.90;59.70;;;;;;5007285;28;20202;-73
2022/09/21 13:21:44;;;;;;;0.80;0.80;;;18.90;59.70;;;;;;4977981;28;20212;-73
2022/09/21 13:24:27;;;;;;;0.98;0.93;;;18.90;60.50;;;;;;4994009;28;20193;-73
2022/09/21 13:26:58;;;;;;;1.20;1.10;;;18.90;59.80;;;;;;4994432;28;20192;-73
2022/09/21 13:29:32;;;;;;;1.17;1.00;;;18.90;59.90;;;;;;5009833;28;20705;-73
2022/09/21 13:32:22;;;;;;;1.23;1.13;;;18.90;59.70;;;;;;4977905;28;20204;-73
2022/09/21 13:34:49;;;;;;;1.10;0.85;;;18.90;59.70;;;;;;4977021;28;20738;-73
2022/09/21 13:37:18;;;;;;;1.17;1.08;;;18.90;59.70;;;;;;4993772;28;20191;-73
2022/09/21 13:40:12;;;;;;;1.45;1.13;;;18.90;59.70;;;;;;4993470;28;20207;-73